createdAt,value
2018-12-11T00:01:47.253Z,4.77
2018-12-11T00:02:47.302Z,4.86
2018-12-11T00:04:40.279Z,4.84
2018-12-11T00:05:40.329Z,4.71
2018-12-11T00:07:33.304Z,4.78
2018-12-11T00:08:33.547Z,4.78
2018-12-11T00:10:26.346Z,4.63
2018-12-11T00:11:26.388Z,4.62
2018-12-11T00:13:19.368Z,4.66
2018-12-11T00:14:19.423Z,4.59
2018-12-11T00:16:12.400Z,4.60
2018-12-11T00:17:12.453Z,4.50
2018-12-11T00:19:05.424Z,4.44
2018-12-11T00:20:05.480Z,4.53
2018-12-11T00:21:58.458Z,4.49
2018-12-11T00:22:58.505Z,4.42
2018-12-11T00:24:51.486Z,4.53
2018-12-11T00:25:51.535Z,4.49
2018-12-11T00:27:44.508Z,4.50
2018-12-11T00:28:44.564Z,4.42
2018-12-11T00:30:37.541Z,4.55
2018-12-11T00:31:37.588Z,4.49
2018-12-11T00:33:30.565Z,4.38
2018-12-11T00:34:30.618Z,4.35
2018-12-11T00:36:23.594Z,4.32
2018-12-11T00:37:23.644Z,4.28
2018-12-11T00:39:16.616Z,4.31
2018-12-11T00:40:16.672Z,4.28
2018-12-11T00:42:09.648Z,4.34
2018-12-11T00:43:09.697Z,4.30
2018-12-11T00:45:02.676Z,4.28
2018-12-11T00:46:02.726Z,4.26
2018-12-11T00:47:55.698Z,4.26
2018-12-11T00:48:55.752Z,4.26
2018-12-11T00:50:48.742Z,4.24
2018-12-11T00:51:48.791Z,4.23
2018-12-11T00:53:41.765Z,4.13
2018-12-11T00:54:41.819Z,4.17
2018-12-11T00:56:34.800Z,4.24
2018-12-11T00:57:34.850Z,4.14
2018-12-11T00:59:27.820Z,4.23
2018-12-11T01:00:27.874Z,4.23
2018-12-11T01:02:20.852Z,4.31
2018-12-11T01:03:20.902Z,4.26
2018-12-11T01:05:13.880Z,4.38
2018-12-11T01:06:13.929Z,4.35
2018-12-11T01:08:06.900Z,4.28
2018-12-11T01:09:06.957Z,4.28
2018-12-11T01:10:59.933Z,4.30
2018-12-11T01:11:59.983Z,4.22
2018-12-11T01:13:52.957Z,4.14
2018-12-11T01:14:53.009Z,4.22
2018-12-11T01:16:45.986Z,4.17
2018-12-11T01:17:46.037Z,4.13
2018-12-11T01:19:39.007Z,4.23
2018-12-11T01:20:39.061Z,3.99
2018-12-11T01:22:32.039Z,4.12
2018-12-11T01:23:32.086Z,4.08
2018-12-11T01:25:25.068Z,3.98
2018-12-11T01:26:25.115Z,4.02
2018-12-11T01:28:18.087Z,4.08
2018-12-11T01:29:18.140Z,4.06
2018-12-11T01:31:11.122Z,4.08
2018-12-11T01:32:11.170Z,4.06
2018-12-11T01:34:04.148Z,4.04
2018-12-11T01:35:04.198Z,4.06
2018-12-11T01:36:57.175Z,4.20
2018-12-11T01:37:57.224Z,4.17
2018-12-11T01:39:50.195Z,4.14
2018-12-11T01:40:50.252Z,4.12
2018-12-11T01:42:43.228Z,4.14
2018-12-11T01:43:43.273Z,4.20
2018-12-11T01:45:36.262Z,4.13
2018-12-11T01:46:36.578Z,4.17
2018-12-11T01:48:29.274Z,4.13
2018-12-11T01:49:29.336Z,4.12
2018-12-11T01:51:22.307Z,4.16
2018-12-11T01:52:22.354Z,4.08
2018-12-11T01:54:15.328Z,4.17
2018-12-11T01:55:15.387Z,4.16
2018-12-11T01:57:08.363Z,4.14
2018-12-11T01:58:08.407Z,4.08
2018-12-11T02:00:01.389Z,4.19
2018-12-11T02:01:01.438Z,4.13
2018-12-11T02:02:54.421Z,4.17
2018-12-11T02:03:54.471Z,4.08
2018-12-11T02:05:47.965Z,4.19
2018-12-11T02:06:48.007Z,4.16
2018-12-11T02:08:40.976Z,4.14
2018-12-11T02:09:41.036Z,4.20
2018-12-11T02:11:34.013Z,4.16
2018-12-11T02:12:34.062Z,4.16
2018-12-11T02:14:27.036Z,4.19
2018-12-11T02:15:27.091Z,4.16
2018-12-11T02:17:20.068Z,4.12
2018-12-11T02:18:20.116Z,4.16
2018-12-11T02:20:13.092Z,4.14
2018-12-11T02:21:13.151Z,4.17
2018-12-11T02:23:06.137Z,4.20
2018-12-11T02:24:06.179Z,4.13
2018-12-11T02:25:59.158Z,4.16
2018-12-11T02:26:59.205Z,4.16
2018-12-11T02:28:52.179Z,4.19
2018-12-11T02:29:52.233Z,4.16
2018-12-11T02:31:45.212Z,4.17
2018-12-11T02:32:45.260Z,4.14
2018-12-11T02:34:38.232Z,4.32
2018-12-11T02:35:38.286Z,4.31
2018-12-11T02:37:31.272Z,4.49
2018-12-11T02:38:31.315Z,4.45
2018-12-11T02:40:24.292Z,4.45
2018-12-11T02:41:24.457Z,4.37
2018-12-11T02:43:17.326Z,4.38
2018-12-11T02:44:17.374Z,4.37
2018-12-11T02:46:10.353Z,4.30
2018-12-11T02:47:10.398Z,4.38
2018-12-11T02:49:03.374Z,4.40
2018-12-11T02:50:03.430Z,4.38
2018-12-11T02:51:56.409Z,4.49
2018-12-11T02:52:56.459Z,4.49
2018-12-11T02:54:49.433Z,4.49
2018-12-11T02:55:49.485Z,4.42
2018-12-11T02:57:42.465Z,4.42
2018-12-11T02:58:42.512Z,4.37
2018-12-11T03:00:35.491Z,4.42
2018-12-11T03:01:35.547Z,4.38
2018-12-11T03:03:28.530Z,4.38
2018-12-11T03:04:28.633Z,4.31
2018-12-11T03:06:23.054Z,4.41
2018-12-11T03:07:23.100Z,4.45
2018-12-11T03:09:16.074Z,4.48
2018-12-11T03:10:16.131Z,4.48
2018-12-11T03:12:09.110Z,4.48
2018-12-11T03:13:09.158Z,4.50
2018-12-11T03:15:02.130Z,4.44
2018-12-11T03:16:02.183Z,4.48
2018-12-11T03:17:55.168Z,4.52
2018-12-11T03:18:55.210Z,4.49
2018-12-11T03:20:48.202Z,4.49
2018-12-11T03:21:48.237Z,4.44
2018-12-11T03:23:41.212Z,4.38
2018-12-11T03:24:41.265Z,4.37
2018-12-11T03:26:34.245Z,4.38
2018-12-11T03:27:34.292Z,4.32
2018-12-11T03:29:27.270Z,4.38
2018-12-11T03:30:27.321Z,4.40
2018-12-11T03:32:20.304Z,4.37
2018-12-11T03:33:20.347Z,4.38
2018-12-11T03:35:13.316Z,4.34
2018-12-11T03:36:13.372Z,4.24
2018-12-11T03:38:06.350Z,4.35
2018-12-11T03:39:06.398Z,4.31
2018-12-11T03:40:59.385Z,4.20
2018-12-11T03:41:59.423Z,4.17
2018-12-11T03:43:52.396Z,4.19
2018-12-11T03:44:52.448Z,4.22
2018-12-11T03:46:45.435Z,4.14
2018-12-11T03:47:45.472Z,4.22
2018-12-11T03:49:38.450Z,4.22
2018-12-11T03:50:38.503Z,4.20
2018-12-11T03:52:31.488Z,4.16
2018-12-11T03:53:31.530Z,4.22
2018-12-11T03:55:24.503Z,4.22
2018-12-11T03:56:24.556Z,4.22
2018-12-11T03:58:17.543Z,4.24
2018-12-11T03:59:17.584Z,4.16
2018-12-11T04:01:10.561Z,4.13
2018-12-11T04:02:10.610Z,4.14
2018-12-11T04:04:03.582Z,4.08
2018-12-11T04:05:03.637Z,4.19
2018-12-11T04:06:56.613Z,4.19
2018-12-11T04:07:56.663Z,4.08
2018-12-11T04:09:49.633Z,4.16
2018-12-11T04:10:49.687Z,4.14
2018-12-11T04:12:42.669Z,4.04
2018-12-11T04:13:42.716Z,4.01
2018-12-11T04:15:35.687Z,4.08
2018-12-11T04:16:35.766Z,4.10
2018-12-11T04:18:28.726Z,4.12
2018-12-11T04:19:28.773Z,4.05
2018-12-11T04:21:21.760Z,4.12
2018-12-11T04:22:21.810Z,4.01
2018-12-11T04:24:14.781Z,4.01
2018-12-11T04:25:14.842Z,4.12
2018-12-11T04:27:07.813Z,4.02
2018-12-11T04:28:07.861Z,4.05
2018-12-11T04:30:00.837Z,3.99
2018-12-11T04:31:00.892Z,3.96
2018-12-11T04:32:53.870Z,4.02
2018-12-11T04:33:53.918Z,4.04
2018-12-11T04:35:46.894Z,4.02
2018-12-11T04:36:46.952Z,3.94
2018-12-11T04:38:39.927Z,4.02
2018-12-11T04:39:40.215Z,3.91
2018-12-11T04:41:32.952Z,3.96
2018-12-11T04:42:33.001Z,3.94
2018-12-11T04:44:25.972Z,3.95
2018-12-11T04:45:26.026Z,3.87
2018-12-11T04:47:19.005Z,3.84
2018-12-11T04:48:19.051Z,3.87
2018-12-11T04:50:12.026Z,3.87
2018-12-11T04:51:12.082Z,3.86
2018-12-11T04:53:05.088Z,3.77
2018-12-11T04:54:05.106Z,3.77
2018-12-11T04:55:58.077Z,3.87
2018-12-11T04:56:58.131Z,3.84
2018-12-11T04:58:51.113Z,3.95
2018-12-11T04:59:51.166Z,3.96
2018-12-11T05:01:44.139Z,4.01
2018-12-11T05:02:44.189Z,3.99
2018-12-11T05:04:37.160Z,4.05
2018-12-11T05:05:37.213Z,4.06
2018-12-11T05:07:30.202Z,4.06
2018-12-11T05:08:30.245Z,4.19
2018-12-11T05:10:23.220Z,4.10
2018-12-11T05:11:23.274Z,4.13
2018-12-11T05:13:16.253Z,4.17
2018-12-11T05:14:16.302Z,4.08
2018-12-11T05:16:09.277Z,4.17
2018-12-11T05:17:09.333Z,4.13
2018-12-11T05:19:02.322Z,4.10
2018-12-11T05:20:02.370Z,4.13
2018-12-11T05:21:55.349Z,4.17
2018-12-11T05:22:55.396Z,4.22
2018-12-11T05:24:48.369Z,4.17
2018-12-11T05:25:48.424Z,4.22
2018-12-11T05:27:41.402Z,4.28
2018-12-11T05:28:41.449Z,4.24
2018-12-11T05:30:34.425Z,4.31
2018-12-11T05:31:34.478Z,4.30
2018-12-11T05:33:27.461Z,4.17
2018-12-11T05:34:27.501Z,4.30
2018-12-11T05:36:20.480Z,4.24
2018-12-11T05:37:20.536Z,4.22
2018-12-11T05:39:13.520Z,4.13
2018-12-11T05:40:13.567Z,4.19
2018-12-11T05:42:06.544Z,4.20
2018-12-11T05:43:06.590Z,4.20
2018-12-11T05:44:59.563Z,4.20
2018-12-11T05:45:59.691Z,4.04
2018-12-11T05:47:52.595Z,4.06
2018-12-11T05:48:52.641Z,4.12
2018-12-11T05:50:45.615Z,4.04
2018-12-11T05:51:45.669Z,4.05
2018-12-11T05:53:38.647Z,3.96
2018-12-11T05:54:38.695Z,4.02
2018-12-11T05:56:31.675Z,3.95
2018-12-11T05:57:31.730Z,3.94
2018-12-11T05:59:24.706Z,3.92
2018-12-11T06:00:24.758Z,3.84
2018-12-11T06:02:17.734Z,3.87
2018-12-11T06:03:17.783Z,3.86
2018-12-11T06:05:10.757Z,3.91
2018-12-11T06:06:10.808Z,3.91
2018-12-11T06:08:03.788Z,3.83
2018-12-11T06:09:03.837Z,3.86
2018-12-11T06:10:56.810Z,3.76
2018-12-11T06:11:56.865Z,3.78
2018-12-11T06:13:49.844Z,3.73
2018-12-11T06:14:49.889Z,3.76
2018-12-11T06:16:42.867Z,3.68
2018-12-11T06:17:42.922Z,3.62
2018-12-11T06:19:35.910Z,3.70
2018-12-11T06:20:35.955Z,3.76
2018-12-11T06:22:28.932Z,3.62
2018-12-11T06:23:28.984Z,3.63
2018-12-11T06:25:21.956Z,3.65
2018-12-11T06:26:22.007Z,3.65
2018-12-11T06:28:14.994Z,3.63
2018-12-11T06:29:15.037Z,3.66
2018-12-11T06:31:08.008Z,3.65
2018-12-11T06:32:08.063Z,3.65
2018-12-11T06:34:01.043Z,3.68
2018-12-11T06:35:01.088Z,3.63
2018-12-11T06:36:54.068Z,3.68
2018-12-11T06:37:54.122Z,3.60
2018-12-11T06:39:47.103Z,3.65
2018-12-11T06:40:47.787Z,3.62
2018-12-11T06:42:40.125Z,3.56
2018-12-11T06:43:40.173Z,3.51
2018-12-11T06:45:33.149Z,3.42
2018-12-11T06:46:33.198Z,3.59
2018-12-11T06:48:26.178Z,3.51
2018-12-11T06:49:26.223Z,3.55
2018-12-11T06:51:19.200Z,3.48
2018-12-11T06:52:19.253Z,3.58
2018-12-11T06:54:12.231Z,3.48
2018-12-11T06:55:12.276Z,3.47
2018-12-11T06:57:05.252Z,3.50
2018-12-11T06:58:05.305Z,3.48
2018-12-11T06:59:58.286Z,3.44
2018-12-11T07:00:58.331Z,3.44
2018-12-11T07:02:51.309Z,3.55
2018-12-11T07:03:51.358Z,3.53
2018-12-11T07:05:44.843Z,3.62
2018-12-11T07:06:44.891Z,3.51
2018-12-11T07:08:37.873Z,3.58
2018-12-11T07:09:37.919Z,3.56
2018-12-11T07:11:30.895Z,3.55
2018-12-11T07:12:30.952Z,3.50
2018-12-11T07:14:23.928Z,3.50
2018-12-11T07:15:23.978Z,3.51
2018-12-11T07:17:16.948Z,3.50
2018-12-11T07:18:17.040Z,3.45
2018-12-11T07:20:09.984Z,3.41
2018-12-11T07:21:10.030Z,3.55
2018-12-11T07:23:03.010Z,3.56
2018-12-11T07:24:03.058Z,3.58
2018-12-11T07:25:56.033Z,3.50
2018-12-11T07:26:56.090Z,3.60
2018-12-11T07:28:49.067Z,3.59
2018-12-11T07:29:49.118Z,3.55
2018-12-11T07:31:42.086Z,3.56
2018-12-11T07:32:42.140Z,3.55
2018-12-11T07:34:35.120Z,3.62
2018-12-11T07:35:35.172Z,3.66
2018-12-11T07:37:28.138Z,3.60
2018-12-11T07:38:28.194Z,3.62
2018-12-11T07:40:21.174Z,3.59
2018-12-11T07:41:21.219Z,3.51
2018-12-11T07:43:14.201Z,3.51
2018-12-11T07:44:14.248Z,3.44
2018-12-11T07:46:07.362Z,3.48
2018-12-11T07:47:07.275Z,3.50
2018-12-11T07:49:00.263Z,3.50
2018-12-11T07:50:00.309Z,3.47
2018-12-11T07:51:53.282Z,3.51
2018-12-11T07:52:53.383Z,3.56
2018-12-11T07:54:46.312Z,3.50
2018-12-11T07:55:46.360Z,3.50
2018-12-11T07:57:39.336Z,3.66
2018-12-11T07:58:39.389Z,3.63
2018-12-11T08:00:32.369Z,3.70
2018-12-11T08:01:32.422Z,3.69
2018-12-11T08:03:25.395Z,3.81
2018-12-11T08:04:25.442Z,3.78
2018-12-11T08:06:18.925Z,3.99
2018-12-11T08:07:18.976Z,4.08
2018-12-11T08:09:11.956Z,4.19
2018-12-11T08:10:12.002Z,4.17
2018-12-11T08:12:08.317Z,4.16
2018-12-11T08:13:05.031Z,4.23
2018-12-11T08:14:58.012Z,4.17
2018-12-11T08:15:58.059Z,4.13
2018-12-11T08:17:51.058Z,4.17
2018-12-11T08:18:51.102Z,4.23
2018-12-11T08:20:44.066Z,4.41
2018-12-11T08:21:44.116Z,4.41
2018-12-11T08:23:37.092Z,4.58
2018-12-11T08:24:37.141Z,4.56
2018-12-11T08:26:30.178Z,4.70
2018-12-11T08:27:30.168Z,4.68
2018-12-11T08:29:23.211Z,4.89
2018-12-11T08:30:23.202Z,4.99
2018-12-11T08:32:16.173Z,5.46
2018-12-11T08:33:16.236Z,5.64
2018-12-11T08:35:09.219Z,5.80
2018-12-11T08:36:09.275Z,6.07
2018-12-11T08:38:02.242Z,6.42
2018-12-11T08:39:02.296Z,6.33
2018-12-11T08:40:55.280Z,6.59
2018-12-11T08:41:55.323Z,6.62
2018-12-11T08:43:48.307Z,6.27
2018-12-11T08:44:51.121Z,6.30
2018-12-11T08:46:41.327Z,5.82
2018-12-11T08:47:41.382Z,5.66
2018-12-11T08:49:34.363Z,5.46
2018-12-11T08:50:34.409Z,5.28
2018-12-11T08:52:27.381Z,5.17
2018-12-11T08:53:27.438Z,5.15
2018-12-11T08:55:20.419Z,5.17
2018-12-11T08:56:20.465Z,5.17
2018-12-11T08:58:13.440Z,5.18
2018-12-11T08:59:13.492Z,5.20
2018-12-11T09:01:06.470Z,5.25
2018-12-11T09:02:06.520Z,5.32
2018-12-11T09:03:59.502Z,5.32
2018-12-11T09:04:59.549Z,5.33
2018-12-11T09:06:52.525Z,5.26
2018-12-11T09:07:52.577Z,5.28
2018-12-11T09:09:45.565Z,5.32
2018-12-11T09:10:45.608Z,5.32
2018-12-11T09:12:38.582Z,5.25
2018-12-11T09:13:38.646Z,5.28
2018-12-11T09:15:31.618Z,5.21
2018-12-11T09:16:31.666Z,5.32
2018-12-11T09:18:24.638Z,5.25
2018-12-11T09:19:24.732Z,5.21
2018-12-11T09:21:17.669Z,5.21
2018-12-11T09:22:17.721Z,5.18
2018-12-11T09:24:10.701Z,5.23
2018-12-11T09:25:10.752Z,5.21
2018-12-11T09:27:03.731Z,5.20
2018-12-11T09:28:03.787Z,5.26
2018-12-11T09:29:56.766Z,5.35
2018-12-11T09:30:56.814Z,5.29
2018-12-11T09:32:49.789Z,5.32
2018-12-11T09:33:49.840Z,5.21
2018-12-11T09:35:42.827Z,5.44
2018-12-11T09:36:42.870Z,5.43
2018-12-11T09:38:35.853Z,5.36
2018-12-11T09:39:35.908Z,5.44
2018-12-11T09:41:28.886Z,5.56
2018-12-11T09:42:28.935Z,5.64
2018-12-11T09:44:22.415Z,5.64
2018-12-11T09:45:22.466Z,5.65
2018-12-11T09:47:15.438Z,5.69
2018-12-11T09:48:15.491Z,5.76
2018-12-11T09:50:08.473Z,5.99
2018-12-11T09:51:08.522Z,6.05
2018-12-11T09:53:01.503Z,6.11
2018-12-11T09:54:01.551Z,6.08
2018-12-11T09:55:54.533Z,6.24
2018-12-11T09:56:54.580Z,6.20
2018-12-11T09:58:47.558Z,6.28
2018-12-11T09:59:47.614Z,6.19
2018-12-11T10:01:40.598Z,6.26
2018-12-11T10:02:40.644Z,6.24
2018-12-11T10:04:33.631Z,6.16
2018-12-11T10:05:33.676Z,6.19
2018-12-11T10:07:26.651Z,6.01
2018-12-11T10:08:26.706Z,6.07
2018-12-11T10:10:19.695Z,6.09
2018-12-11T10:11:19.740Z,6.05
2018-12-11T10:13:12.719Z,6.20
2018-12-11T10:14:12.773Z,6.22
2018-12-11T10:16:05.760Z,6.26
2018-12-11T10:17:05.799Z,6.24
2018-12-11T10:18:58.781Z,6.30
2018-12-11T10:19:58.838Z,6.31
2018-12-11T10:21:51.826Z,6.30
2018-12-11T10:22:51.877Z,6.31
2018-12-11T10:24:44.855Z,6.41
2018-12-11T10:25:44.902Z,6.39
2018-12-11T10:27:37.886Z,6.28
2018-12-11T10:28:37.937Z,6.28
2018-12-11T10:30:30.917Z,6.27
2018-12-11T10:31:30.966Z,6.26
2018-12-11T10:33:23.947Z,6.36
2018-12-11T10:34:24.001Z,6.30
2018-12-11T10:36:16.983Z,6.48
2018-12-11T10:37:17.032Z,6.46
2018-12-11T10:39:10.007Z,6.51
2018-12-11T10:40:10.088Z,6.56
2018-12-11T10:42:03.042Z,6.67
2018-12-11T10:43:03.090Z,6.67
2018-12-11T10:44:56.073Z,6.70
2018-12-11T10:45:56.120Z,6.69
2018-12-11T10:47:49.099Z,6.77
2018-12-11T10:48:49.152Z,6.79
2018-12-11T10:50:42.133Z,6.88
2018-12-11T10:51:42.174Z,7.03
2018-12-11T10:53:35.153Z,7.28
2018-12-11T10:54:35.209Z,7.24
2018-12-11T10:56:28.200Z,7.40
2018-12-11T10:57:28.239Z,7.51
2018-12-11T10:59:21.210Z,7.50
2018-12-11T11:00:21.314Z,7.40
2018-12-11T11:02:14.254Z,7.40
2018-12-11T11:03:14.302Z,7.32
2018-12-11T11:05:07.281Z,7.31
2018-12-11T11:06:07.330Z,7.17
2018-12-11T11:08:00.303Z,7.05
2018-12-11T11:09:00.358Z,7.00
2018-12-11T11:10:53.341Z,6.95
2018-12-11T11:11:53.391Z,6.92
2018-12-11T11:13:46.401Z,6.89
2018-12-11T11:14:46.429Z,6.92
2018-12-11T11:16:39.411Z,6.88
2018-12-11T11:17:39.456Z,6.84
2018-12-11T11:19:32.428Z,6.81
2018-12-11T11:20:32.487Z,6.84
2018-12-11T11:22:25.478Z,6.82
2018-12-11T11:23:25.521Z,6.85
2018-12-11T11:25:18.499Z,6.79
2018-12-11T11:26:18.548Z,6.78
2018-12-11T11:28:11.525Z,6.74
2018-12-11T11:29:11.582Z,6.85
2018-12-11T11:31:04.565Z,6.87
2018-12-11T11:32:04.612Z,6.88
2018-12-11T11:33:58.672Z,7.03
2018-12-11T11:34:57.646Z,7.03
2018-12-11T11:36:50.644Z,7.02
2018-12-11T11:37:50.680Z,7.15
2018-12-11T11:39:43.653Z,7.15
2018-12-11T11:40:43.707Z,7.18
2018-12-11T11:42:36.690Z,7.24
2018-12-11T11:43:36.739Z,7.29
2018-12-11T11:45:29.721Z,7.32
2018-12-11T11:46:29.770Z,7.28
2018-12-11T11:48:22.743Z,7.33
2018-12-11T11:49:22.798Z,7.42
2018-12-11T11:51:15.798Z,7.38
2018-12-11T11:52:15.832Z,7.48
2018-12-11T11:54:08.805Z,7.51
2018-12-11T11:55:08.859Z,7.61
2018-12-11T11:57:01.841Z,7.54
2018-12-11T11:58:01.888Z,7.67
2018-12-11T11:59:54.862Z,7.54
2018-12-11T12:00:54.919Z,7.50
2018-12-11T12:02:47.907Z,7.50
2018-12-11T12:03:47.958Z,7.56
2018-12-11T12:05:41.455Z,7.56
2018-12-11T12:06:41.502Z,7.63
2018-12-11T12:08:34.478Z,7.76
2018-12-11T12:09:34.532Z,7.83
2018-12-11T12:11:27.510Z,7.94
2018-12-11T12:12:27.560Z,8.01
2018-12-11T12:14:20.539Z,8.12
2018-12-11T12:15:20.608Z,8.16
2018-12-11T12:17:13.582Z,8.06
2018-12-11T12:18:13.642Z,8.03
2018-12-11T12:20:06.602Z,7.91
2018-12-11T12:21:06.657Z,7.88
2018-12-11T12:22:59.637Z,7.97
2018-12-11T12:23:59.687Z,7.98
2018-12-11T12:25:52.678Z,8.05
2018-12-11T12:26:52.727Z,8.01
2018-12-11T12:28:45.702Z,7.88
2018-12-11T12:29:45.758Z,7.94
2018-12-11T12:31:38.747Z,7.83
2018-12-11T12:32:38.798Z,7.80
2018-12-11T12:34:31.774Z,7.72
2018-12-11T12:35:31.831Z,7.70
2018-12-11T12:37:24.812Z,7.67
2018-12-11T12:38:24.861Z,7.60
2018-12-11T12:40:17.840Z,7.60
2018-12-11T12:41:17.895Z,7.57
2018-12-11T12:43:10.884Z,7.50
2018-12-11T12:44:10.937Z,7.45
2018-12-11T12:46:03.913Z,7.40
2018-12-11T12:47:03.962Z,7.50
2018-12-11T12:48:56.938Z,7.63
2018-12-11T12:49:56.992Z,7.61
2018-12-11T12:51:49.991Z,7.60
2018-12-11T12:52:50.040Z,7.66
2018-12-11T12:54:43.028Z,7.56
2018-12-11T12:55:43.075Z,7.53
2018-12-11T12:57:36.057Z,7.48
2018-12-11T12:58:36.107Z,7.48
2018-12-11T13:00:29.088Z,7.56
2018-12-11T13:01:29.138Z,7.50
2018-12-11T13:03:22.119Z,7.57
2018-12-11T13:04:22.171Z,7.53
2018-12-11T13:06:15.660Z,7.50
2018-12-11T13:07:15.707Z,7.50
2018-12-11T13:09:08.687Z,7.48
2018-12-11T13:10:08.741Z,7.43
2018-12-11T13:12:01.726Z,7.43
2018-12-11T13:13:01.777Z,7.45
2018-12-11T13:14:54.750Z,7.40
2018-12-11T13:15:54.805Z,7.54
2018-12-11T13:17:47.786Z,7.63
2018-12-11T13:18:47.834Z,7.66
2018-12-11T13:20:40.805Z,7.61
2018-12-11T13:21:40.864Z,7.63
2018-12-11T13:23:33.842Z,7.72
2018-12-11T13:24:33.893Z,7.60
2018-12-11T13:26:26.877Z,7.66
2018-12-11T13:27:26.926Z,7.63
2018-12-11T13:29:19.908Z,7.63
2018-12-11T13:30:19.961Z,7.51
2018-12-11T13:32:12.949Z,7.60
2018-12-11T13:33:12.997Z,7.54
2018-12-11T13:35:05.979Z,7.50
2018-12-11T13:36:06.035Z,7.51
2018-12-11T13:37:59.017Z,7.61
2018-12-11T13:38:59.364Z,7.57
2018-12-11T13:40:52.040Z,7.60
2018-12-11T13:41:52.096Z,7.63
2018-12-11T13:43:45.081Z,7.63
2018-12-11T13:44:45.137Z,7.69
2018-12-11T13:46:38.120Z,7.70
2018-12-11T13:47:38.164Z,7.75
2018-12-11T13:49:31.139Z,7.72
2018-12-11T13:50:31.203Z,7.70
2018-12-11T13:52:24.183Z,7.70
2018-12-11T13:53:24.237Z,7.66
2018-12-11T13:55:17.211Z,7.69
2018-12-11T13:56:17.266Z,7.72
2018-12-11T13:58:10.247Z,7.75
2018-12-11T13:59:10.299Z,7.69
2018-12-11T14:01:03.273Z,7.73
2018-12-11T14:02:03.327Z,7.77
2018-12-11T14:03:56.310Z,7.79
2018-12-11T14:04:56.360Z,7.72
2018-12-11T14:06:49.854Z,7.75
2018-12-11T14:07:49.900Z,7.69
2018-12-11T14:09:42.877Z,7.63
2018-12-11T14:10:42.938Z,7.63
2018-12-11T14:12:35.926Z,7.61
2018-12-11T14:13:35.967Z,7.54
2018-12-11T14:15:28.947Z,7.48
2018-12-11T14:16:29.004Z,7.51
2018-12-11T14:18:22.004Z,7.42
2018-12-11T14:19:22.041Z,7.42
2018-12-11T14:21:15.032Z,7.40
2018-12-11T14:22:15.075Z,7.33
2018-12-11T14:24:08.054Z,7.29
2018-12-11T14:25:08.100Z,7.32
2018-12-11T14:27:01.085Z,7.25
2018-12-11T14:28:01.137Z,7.32
2018-12-11T14:29:54.109Z,7.31
2018-12-11T14:30:54.165Z,7.24
2018-12-11T14:32:47.148Z,7.25
2018-12-11T14:33:47.198Z,7.25
2018-12-11T14:35:40.173Z,7.24
2018-12-11T14:36:40.227Z,7.25
2018-12-11T14:38:33.211Z,7.32
2018-12-11T14:39:33.261Z,7.20
2018-12-11T14:41:26.237Z,7.32
2018-12-11T14:42:26.294Z,7.28
2018-12-11T14:44:19.289Z,7.31
2018-12-11T14:45:19.332Z,7.35
2018-12-11T14:47:12.310Z,7.40
2018-12-11T14:48:12.360Z,7.33
2018-12-11T14:50:05.335Z,7.38
2018-12-11T14:51:05.392Z,7.33
2018-12-11T14:52:58.373Z,7.32
2018-12-11T14:53:58.422Z,7.33
2018-12-11T14:55:51.399Z,7.33
2018-12-11T14:56:51.454Z,7.31
2018-12-11T14:58:44.435Z,7.28
2018-12-11T14:59:44.484Z,7.29
2018-12-11T15:01:37.459Z,7.31
2018-12-11T15:02:37.514Z,7.31
2018-12-11T15:04:30.498Z,7.24
2018-12-11T15:05:30.547Z,7.24
2018-12-11T15:07:23.534Z,7.28
2018-12-11T15:08:23.580Z,7.28
2018-12-11T15:10:16.555Z,7.31
2018-12-11T15:11:16.611Z,7.28
2018-12-11T15:13:09.589Z,7.29
2018-12-11T15:14:09.642Z,7.28
2018-12-11T15:16:02.615Z,7.29
2018-12-11T15:17:02.675Z,7.28
2018-12-11T15:18:55.671Z,7.25
2018-12-11T15:19:55.711Z,7.29
2018-12-11T15:21:48.689Z,7.25
2018-12-11T15:22:48.742Z,7.25
2018-12-11T15:24:41.722Z,7.21
2018-12-11T15:25:41.771Z,7.17
2018-12-11T15:27:34.761Z,7.29
2018-12-11T15:28:34.805Z,7.11
2018-12-11T15:30:27.785Z,7.18
2018-12-11T15:31:27.841Z,7.25
2018-12-11T15:33:20.827Z,7.20
2018-12-11T15:34:20.874Z,7.15
2018-12-11T15:36:13.852Z,7.17
2018-12-11T15:37:13.905Z,7.18
2018-12-11T15:39:06.901Z,7.18
2018-12-11T15:40:06.944Z,7.00
2018-12-11T15:41:59.924Z,7.00
2018-12-11T15:42:59.983Z,7.05
2018-12-11T15:44:52.969Z,7.03
2018-12-11T15:45:53.018Z,7.03
2018-12-11T15:47:45.999Z,6.97
2018-12-11T15:48:46.049Z,7.03
2018-12-11T15:50:39.023Z,7.03
2018-12-11T15:51:39.078Z,7.00
2018-12-11T15:53:32.065Z,6.96
2018-12-11T15:54:32.108Z,7.03
2018-12-11T15:56:25.092Z,7.00
2018-12-11T15:57:25.155Z,7.00
2018-12-11T15:59:18.126Z,7.03
2018-12-11T16:00:18.171Z,7.03
2018-12-11T16:02:11.150Z,7.03
2018-12-11T16:03:11.206Z,7.02
2018-12-11T16:05:04.188Z,6.96
2018-12-11T16:06:04.239Z,6.97
2018-12-11T16:07:57.221Z,6.97
2018-12-11T16:08:57.268Z,7.06
2018-12-11T16:10:50.245Z,7.00
2018-12-11T16:11:50.300Z,6.97
2018-12-11T16:13:43.281Z,7.05
2018-12-11T16:14:43.329Z,6.92
2018-12-11T16:16:36.312Z,6.97
2018-12-11T16:17:36.368Z,6.88
2018-12-11T16:19:29.353Z,6.89
2018-12-11T16:20:29.399Z,6.89
2018-12-11T16:22:22.380Z,6.93
2018-12-11T16:23:22.435Z,6.87
2018-12-11T16:25:15.424Z,6.81
2018-12-11T16:26:15.468Z,6.88
2018-12-11T16:28:08.457Z,6.82
2018-12-11T16:29:08.507Z,6.84
2018-12-11T16:31:01.482Z,6.75
2018-12-11T16:32:01.537Z,6.77
2018-12-11T16:33:54.518Z,6.72
2018-12-11T16:34:54.567Z,6.84
2018-12-11T16:36:47.540Z,6.81
2018-12-11T16:37:47.598Z,6.95
2018-12-11T16:39:40.581Z,6.87
2018-12-11T16:40:40.629Z,6.93
2018-12-11T16:42:33.611Z,6.97
2018-12-11T16:43:33.663Z,6.96
2018-12-11T16:45:26.645Z,6.85
2018-12-11T16:46:26.692Z,6.82
2018-12-11T16:48:19.676Z,6.84
2018-12-11T16:49:19.726Z,6.87
2018-12-11T16:51:12.701Z,6.78
2018-12-11T16:52:12.759Z,6.87
2018-12-11T16:54:05.739Z,6.82
2018-12-11T16:55:05.788Z,6.74
2018-12-11T16:56:58.762Z,6.74
2018-12-11T16:57:58.819Z,6.77
2018-12-11T16:59:51.802Z,6.75
2018-12-11T17:00:51.852Z,6.77
2018-12-11T17:02:44.834Z,6.78
2018-12-11T17:03:44.890Z,6.75
2018-12-11T17:05:37.882Z,6.67
2018-12-11T17:06:37.931Z,6.77
2018-12-11T17:08:30.909Z,6.74
2018-12-11T17:09:30.956Z,6.70
2018-12-11T17:11:23.931Z,6.72
2018-12-11T17:12:23.987Z,6.60
2018-12-11T17:14:16.968Z,6.69
2018-12-11T17:15:17.018Z,6.70
2018-12-11T17:17:09.990Z,6.70
2018-12-11T17:18:10.047Z,6.70
2018-12-11T17:20:03.026Z,6.70
2018-12-11T17:21:03.077Z,6.78
2018-12-11T17:22:56.049Z,6.74
2018-12-11T17:23:56.107Z,6.72
2018-12-11T17:25:49.095Z,6.66
2018-12-11T17:26:49.145Z,6.67
2018-12-11T17:28:42.134Z,6.60
2018-12-11T17:29:42.183Z,6.57
2018-12-11T17:31:35.157Z,6.67
2018-12-11T17:32:35.218Z,6.66
2018-12-11T17:34:28.198Z,6.62
2018-12-11T17:35:28.241Z,6.62
2018-12-11T17:37:21.215Z,6.64
2018-12-11T17:38:21.288Z,6.67
2018-12-11T17:40:14.260Z,6.67
2018-12-11T17:41:14.305Z,6.70
2018-12-11T17:43:07.284Z,6.63
2018-12-11T17:44:07.343Z,6.66
2018-12-11T17:46:00.323Z,6.70
2018-12-11T17:47:00.370Z,6.62
2018-12-11T17:48:53.352Z,6.67
2018-12-11T17:49:53.399Z,6.69
2018-12-11T17:51:46.376Z,6.62
2018-12-11T17:52:46.432Z,6.59
2018-12-11T17:54:39.424Z,6.62
2018-12-11T17:55:39.474Z,6.64
2018-12-11T17:57:32.452Z,6.63
2018-12-11T17:58:32.673Z,6.70
2018-12-11T18:00:25.488Z,6.64
2018-12-11T18:01:25.538Z,6.69
2018-12-11T18:03:18.514Z,6.70
2018-12-11T18:04:18.571Z,6.75
2018-12-11T18:06:12.059Z,6.66
2018-12-11T18:07:12.108Z,6.72
2018-12-11T18:09:05.094Z,6.62
2018-12-11T18:10:05.135Z,6.54
2018-12-11T18:11:58.115Z,6.64
2018-12-11T18:12:58.171Z,6.56
2018-12-11T18:14:51.192Z,6.54
2018-12-11T18:15:51.241Z,6.54
2018-12-11T18:17:44.215Z,6.46
2018-12-11T18:18:44.274Z,6.42
2018-12-11T18:20:37.252Z,6.36
2018-12-11T18:21:37.300Z,6.36
2018-12-11T18:23:30.275Z,6.31
2018-12-11T18:24:30.333Z,6.42
2018-12-11T18:26:23.309Z,6.30
2018-12-11T18:27:23.359Z,6.28
2018-12-11T18:29:16.341Z,6.30
2018-12-11T18:30:16.391Z,6.28
2018-12-11T18:32:09.367Z,6.33
2018-12-11T18:33:09.421Z,6.28
2018-12-11T18:35:02.408Z,6.31
2018-12-11T18:36:02.455Z,6.28
2018-12-11T18:37:55.432Z,6.35
2018-12-11T18:38:55.592Z,6.24
2018-12-11T18:40:48.469Z,6.24
2018-12-11T18:41:48.532Z,6.28
2018-12-11T18:43:41.506Z,6.30
2018-12-11T18:44:41.550Z,6.27
2018-12-11T18:46:34.536Z,6.22
2018-12-11T18:47:34.582Z,6.26
2018-12-11T18:49:27.562Z,6.17
2018-12-11T18:50:27.609Z,6.01
2018-12-11T18:52:20.584Z,6.08
2018-12-11T18:53:20.637Z,6.07
2018-12-11T18:55:13.620Z,6.02
2018-12-11T18:56:13.669Z,6.11
2018-12-11T18:58:06.667Z,5.91
2018-12-11T18:59:06.703Z,5.97
2018-12-11T19:00:59.710Z,5.93
2018-12-11T19:01:59.733Z,5.97
2018-12-11T19:03:52.709Z,5.94
2018-12-11T19:04:52.766Z,5.91
2018-12-11T19:06:46.262Z,5.91
2018-12-11T19:07:46.304Z,5.87
2018-12-11T19:09:39.286Z,5.79
2018-12-11T19:10:39.339Z,5.72
2018-12-11T19:12:32.326Z,5.71